Time;durP1;ratioP1;P1;durP2;ratioP2;P2;SDS_P1;SDS_P2;PMS_P1;PMS_P2;Temp;Humidity;BMP_temperature;BMP_pressure;BME280_temperature;BME280_humidity;BME280_pressure;Samples;Min_cycle;Max_cycle;Signal;HPM_P1;HPM_P2
2022/02/14 00:02:18;;;;;;;7.53;4.05;;;10.40;99.90;;;;;;5042847;28;20045;-67
2022/02/14 00:04:44;;;;;;;6.78;3.60;;;10.40;99.90;;;;;;5046377;28;20052;-67
2022/02/14 00:07:09;;;;;;;9.07;4.22;;;10.30;99.90;;;;;;5045998;28;20044;-67
2022/02/14 00:09:35;;;;;;;9.20;4.25;;;10.30;99.90;;;;;;5050333;28;20064;-67
2022/02/14 00:12:01;;;;;;;5.90;3.25;;;10.30;99.90;;;;;;5046681;28;20102;-68
2022/02/14 00:14:30;;;;;;;9.10;4.32;;;10.40;99.90;;;;;;5064015;28;20044;-67
2022/02/14 00:16:56;;;;;;;5.53;3.53;;;10.50;99.90;;;;;;5046072;28;20053;-67
2022/02/14 00:19:22;;;;;;;6.95;4.28;;;10.50;99.90;;;;;;5060393;28;20040;-67
2022/02/14 00:21:48;;;;;;;7.00;4.18;;;10.40;99.90;;;;;;5046867;28;20363;-67
2022/02/14 00:24:15;;;;;;;11.05;4.05;;;10.40;99.90;;;;;;5067938;28;20040;-67
2022/02/14 00:26:41;;;;;;;7.60;4.15;;;10.40;99.90;;;;;;5048670;28;20044;-67
2022/02/14 00:29:07;;;;;;;8.48;3.70;;;10.40;99.90;;;;;;5046772;28;20167;-67
2022/02/14 00:31:33;;;;;;;6.47;3.60;;;10.40;99.90;;;;;;5051356;28;20059;-66
2022/02/14 00:33:59;;;;;;;9.00;4.28;;;10.40;99.90;;;;;;5051109;28;20045;-67
2022/02/14 00:36:25;;;;;;;10.07;4.57;;;10.40;99.90;;;;;;5053730;28;20069;-67
2022/02/14 00:38:51;;;;;;;7.75;3.75;;;10.40;99.90;;;;;;5067497;28;20056;-66
2022/02/14 00:41:17;;;;;;;8.48;3.92;;;10.50;99.90;;;;;;5067434;28;20068;-67
2022/02/14 00:43:42;;;;;;;7.90;3.80;;;10.40;99.90;;;;;;5071430;28;20130;-67
2022/02/14 00:46:08;;;;;;;6.70;3.85;;;10.40;99.90;;;;;;5067942;28;20104;-67
2022/02/14 00:48:34;;;;;;;7.00;3.10;;;10.40;99.90;;;;;;5047322;28;20045;-66
2022/02/14 00:51:00;;;;;;;8.30;3.75;;;10.60;99.90;;;;;;5045950;28;20075;-67
2022/02/14 00:53:26;;;;;;;5.88;3.55;;;10.60;99.90;;;;;;5070817;28;20071;-67
2022/02/14 00:55:52;;;;;;;7.10;3.42;;;10.40;99.90;;;;;;5050717;28;20128;-67
2022/02/14 00:58:18;;;;;;;6.05;3.47;;;10.50;99.90;;;;;;5048438;28;20056;-66
2022/02/14 01:00:44;;;;;;;6.45;3.17;;;10.40;99.90;;;;;;5066594;28;20044;-67
2022/02/14 01:03:10;;;;;;;11.40;3.92;;;10.50;99.90;;;;;;5054109;28;20051;-67
2022/02/14 01:05:36;;;;;;;7.03;3.55;;;10.60;99.90;;;;;;5071351;28;20048;-66
2022/02/14 01:08:03;;;;;;;10.40;3.90;;;10.50;99.90;;;;;;5049186;28;20559;-67
2022/02/14 01:10:29;;;;;;;6.68;3.50;;;10.60;99.90;;;;;;5065349;28;20057;-67
2022/02/14 01:12:54;;;;;;;9.35;4.13;;;10.60;99.90;;;;;;5066623;28;20084;-67
2022/02/14 01:15:20;;;;;;;8.10;4.10;;;10.40;99.90;;;;;;5047006;28;20053;-67
2022/02/14 01:17:46;;;;;;;8.30;3.65;;;10.70;99.90;;;;;;5073015;28;20049;-67
2022/02/14 01:20:13;;;;;;;6.43;3.97;;;10.60;99.90;;;;;;5041799;28;20055;-67
2022/02/14 01:22:40;;;;;;;9.98;3.88;;;10.50;99.90;;;;;;5048654;28;20048;-67
2022/02/14 01:25:07;;;;;;;9.32;3.67;;;10.40;99.90;;;;;;5070688;28;20053;-66
2022/02/14 01:27:33;;;;;;;7.40;3.10;;;10.50;99.90;;;;;;5047953;28;20049;-66
2022/02/14 01:29:59;;;;;;;6.47;3.50;;;10.50;99.90;;;;;;5046337;28;20107;-67
2022/02/14 01:32:25;;;;;;;8.55;3.67;;;10.50;99.90;;;;;;5040522;28;20044;-67
2022/02/14 01:34:51;;;;;;;5.35;2.65;;;10.70;99.90;;;;;;5048650;28;20053;-67
2022/02/14 01:37:17;;;;;;;10.70;4.07;;;10.60;99.90;;;;;;5044549;28;20104;-66
2022/02/14 01:39:44;;;;;;;9.70;4.03;;;10.50;99.90;;;;;;5048766;28;20071;-67
2022/02/14 01:42:10;;;;;;;7.43;3.42;;;10.50;99.90;;;;;;5045684;28;20059;-67
2022/02/14 01:44:38;;;;;;;5.28;3.50;;;10.30;99.90;;;;;;5067533;28;20624;-66
2022/02/14 01:47:26;;;;;;;6.65;3.58;;;10.50;99.90;;;;;;5050020;28;20060;-67
2022/02/14 01:49:54;;;;;;;5.00;3.25;;;10.60;99.90;;;;;;5049634;28;20060;-67
2022/02/14 01:52:22;;;;;;;7.38;4.03;;;10.60;99.90;;;;;;5047752;28;20041;-67
2022/02/14 01:54:49;;;;;;;6.65;3.28;;;10.40;99.90;;;;;;5061759;28;20272;-66
2022/02/14 01:57:17;;;;;;;7.53;3.85;;;10.60;99.90;;;;;;5071413;28;20052;-67
2022/02/14 01:59:43;;;;;;;7.15;3.45;;;10.70;99.90;;;;;;5048073;28;20052;-67
2022/02/14 02:02:10;;;;;;;6.97;3.95;;;10.50;99.90;;;;;;5049383;28;20119;-67
2022/02/14 02:04:36;;;;;;;7.63;4.22;;;10.50;99.90;;;;;;5046530;28;20056;-67
2022/02/14 02:07:03;;;;;;;8.13;3.85;;;10.40;99.90;;;;;;5046634;28;20045;-66
2022/02/14 02:09:31;;;;;;;8.82;3.78;;;10.50;99.90;;;;;;5061648;28;20049;-67
2022/02/14 02:14:41;;;;;;;6.10;3.00;;;10.60;99.90;;;;;;5079177;28;20071;-67
2022/02/14 02:17:07;;;;;;;15.40;5.60;;;10.60;99.90;;;;;;5046245;28;20037;-67
2022/02/14 02:19:34;;;;;;;8.88;3.72;;;10.30;99.90;;;;;;5066265;28;20087;-67
2022/02/14 02:22:00;;;;;;;8.82;4.10;;;10.40;99.90;;;;;;5048254;28;20448;-66
2022/02/14 02:24:26;;;;;;;6.85;3.60;;;10.50;99.90;;;;;;5066008;28;20041;-67
2022/02/14 02:27:00;;;;;;;7.47;3.72;;;10.40;99.90;;;;;;5049650;28;20048;-67
2022/02/14 02:29:27;;;;;;;10.32;3.38;;;10.50;99.90;;;;;;5048769;28;20485;-66
2022/02/14 02:31:53;;;;;;;10.38;3.50;;;10.70;99.90;;;;;;5066854;28;20044;-66
2022/02/14 02:34:19;;;;;;;6.13;3.25;;;10.70;99.90;;;;;;5050011;28;20455;-67
2022/02/14 02:36:50;;;;;;;13.40;4.05;;;10.80;99.90;;;;;;5066392;28;20037;-67
2022/02/14 02:39:17;;;;;;;6.85;3.42;;;10.60;99.90;;;;;;5062269;28;20049;-67
2022/02/14 02:41:42;;;;;;;6.88;3.08;;;10.80;99.90;;;;;;5049599;28;20095;-67
2022/02/14 02:44:09;;;;;;;7.72;3.00;;;10.90;99.90;;;;;;5060631;28;20485;-67
2022/02/14 02:46:35;;;;;;;6.63;3.40;;;10.90;99.90;;;;;;5047183;28;20110;-66
2022/02/14 02:49:20;;;;;;;7.78;3.10;;;11.00;99.90;;;;;;5057164;28;20080;-67
2022/02/14 02:51:48;;;;;;;9.27;3.20;;;10.90;99.90;;;;;;5062362;28;20052;-66
2022/02/14 02:54:15;;;;;;;8.30;3.10;;;10.60;99.90;;;;;;5047618;28;20045;-67
2022/02/14 02:56:44;;;;;;;6.82;3.67;;;10.90;99.90;;;;;;5068693;28;20048;-67
2022/02/14 02:59:10;;;;;;;12.35;2.97;;;10.80;99.90;;;;;;5046630;28;20064;-67
2022/02/14 03:01:37;;;;;;;6.55;3.28;;;10.90;99.90;;;;;;5061669;28;20045;-66
2022/02/14 03:04:05;;;;;;;6.82;3.08;;;10.80;99.90;;;;;;5047498;28;20053;-67
2022/02/14 03:06:31;;;;;;;11.40;3.42;;;10.90;99.90;;;;;;5064310;28;20118;-66
2022/02/14 03:08:58;;;;;;;8.48;3.75;;;10.90;99.90;;;;;;5045700;28;20086;-66
2022/02/14 03:11:24;;;;;;;7.10;3.28;;;10.80;99.90;;;;;;5065624;28;20053;-66
2022/02/14 03:13:50;;;;;;;7.85;3.17;;;10.80;99.90;;;;;;5043083;28;20049;-66
2022/02/14 03:16:17;;;;;;;7.80;3.28;;;11.00;99.90;;;;;;5063140;28;20055;-66
2022/02/14 03:18:44;;;;;;;7.63;3.72;;;10.90;99.90;;;;;;5061224;28;20055;-67
2022/02/14 03:21:10;;;;;;;8.35;3.40;;;10.80;99.90;;;;;;5045723;28;20064;-66
2022/02/14 03:23:36;;;;;;;6.80;3.20;;;11.00;99.90;;;;;;5048353;28;20045;-67
2022/02/14 03:26:03;;;;;;;8.93;3.03;;;11.00;99.90;;;;;;5063059;28;20051;-67
2022/02/14 03:28:29;;;;;;;6.22;2.97;;;11.00;99.90;;;;;;5046999;28;20049;-67
2022/02/14 03:30:54;;;;;;;7.65;3.47;;;11.00;99.90;;;;;;5058772;28;20110;-67
2022/02/14 03:33:21;;;;;;;7.53;3.08;;;11.10;99.90;;;;;;5060158;28;20076;-66
2022/02/14 03:35:47;;;;;;;5.65;3.15;;;11.00;99.90;;;;;;5032746;28;20048;-67
2022/02/14 03:38:13;;;;;;;6.65;3.05;;;11.10;99.90;;;;;;5045785;28;20072;-66
2022/02/14 03:40:39;;;;;;;7.78;3.42;;;11.00;99.90;;;;;;5045766;28;20078;-67
2022/02/14 03:43:10;;;;;;;6.38;2.95;;;10.90;99.90;;;;;;5066263;28;20053;-67
2022/02/14 03:45:38;;;;;;;7.15;2.92;;;11.10;99.90;;;;;;5064791;28;20052;-67
2022/02/14 03:48:04;;;;;;;8.32;2.97;;;11.10;99.90;;;;;;5049509;28;20112;-66
2022/02/14 03:50:30;;;;;;;6.32;3.25;;;11.10;99.90;;;;;;5042703;28;20485;-67
2022/02/14 03:52:56;;;;;;;7.13;3.03;;;10.90;99.90;;;;;;5048680;28;20064;-66
2022/02/14 03:55:22;;;;;;;9.13;3.22;;;11.00;99.90;;;;;;5045450;28;20260;-67
2022/02/14 03:57:50;;;;;;;6.05;3.42;;;11.10;99.90;;;;;;5063844;28;20242;-67
2022/02/14 04:00:17;;;;;;;4.80;2.75;;;10.90;99.90;;;;;;5046633;28;20048;-67
2022/02/14 04:02:43;;;;;;;6.60;2.47;;;11.00;99.90;;;;;;5052824;28;20579;-67
2022/02/14 04:05:10;;;;;;;8.35;3.00;;;11.20;99.90;;;;;;5042805;28;20044;-67
2022/02/14 04:07:36;;;;;;;8.73;3.45;;;11.20;99.90;;;;;;5046166;28;20033;-67
2022/02/14 04:10:06;;;;;;;5.65;3.20;;;11.20;99.90;;;;;;5031356;28;20064;-66
2022/02/14 04:12:32;;;;;;;;;;;11.10;99.90;;;;;;5043512;28;20089;-66
2022/02/14 04:14:57;;;;;;;6.45;3.15;;;11.10;99.90;;;;;;5046188;28;19924;-66
2022/02/14 04:17:24;;;;;;;6.13;2.40;;;11.10;99.90;;;;;;5040266;28;20121;-66
2022/02/14 04:19:50;;;;;;;6.15;2.97;;;11.20;99.90;;;;;;5050450;28;20094;-67
2022/02/14 04:22:15;;;;;;;6.55;2.90;;;11.10;99.90;;;;;;5059324;28;20049;-66
2022/02/14 04:24:41;;;;;;;5.20;2.88;;;11.10;99.90;;;;;;5045979;28;20079;-66
2022/02/14 04:27:07;;;;;;;5.63;2.00;;;11.20;99.90;;;;;;5045991;28;20121;-67
2022/02/14 04:29:33;;;;;;;5.15;2.67;;;11.10;99.90;;;;;;5064251;28;20051;-67
2022/02/14 04:31:58;;;;;;;7.35;3.17;;;11.20;99.90;;;;;;5047526;28;20049;-67
2022/02/14 04:34:24;;;;;;;6.20;3.35;;;10.90;99.90;;;;;;5029543;28;20105;-66
2022/02/14 04:36:50;;;;;;;5.32;2.47;;;10.90;99.90;;;;;;5058832;28;20060;-67
2022/02/14 04:39:16;;;;;;;8.70;2.63;;;11.10;99.90;;;;;;5062318;28;20049;-66
2022/02/14 04:41:43;;;;;;;6.18;2.60;;;11.20;99.90;;;;;;5053254;28;20067;-66
2022/02/14 04:44:09;;;;;;;6.47;3.38;;;11.20;99.90;;;;;;5065887;28;20399;-66
2022/02/14 04:46:35;;;;;;;8.90;2.85;;;11.50;99.90;;;;;;5063617;28;20074;-66
2022/02/14 04:49:02;;;;;;;6.53;2.55;;;11.30;99.90;;;;;;5064504;28;20083;-66
2022/02/14 04:51:27;;;;;;;6.88;2.97;;;11.40;99.90;;;;;;5067038;28;20052;-66
2022/02/14 04:53:53;;;;;;;10.13;2.83;;;11.30;99.90;;;;;;5080635;28;20055;-66
2022/02/14 04:56:19;;;;;;;6.15;2.50;;;11.30;99.90;;;;;;5087740;28;20060;-67
2022/02/14 04:58:46;;;;;;;5.30;3.00;;;11.40;99.90;;;;;;5066741;28;20565;-66
2022/02/14 05:01:12;;;;;;;5.80;2.95;;;11.40;99.90;;;;;;5083292;28;20047;-66
2022/02/14 05:03:38;;;;;;;6.20;2.45;;;11.50;99.90;;;;;;5061680;28;20123;-66
2022/02/14 05:06:04;;;;;;;10.48;3.20;;;11.40;99.90;;;;;;5101791;28;20049;-66
2022/02/14 05:08:30;;;;;;;7.93;3.22;;;11.40;99.90;;;;;;5084758;28;20051;-67
2022/02/14 05:10:56;;;;;;;6.53;2.67;;;11.40;99.90;;;;;;5067559;28;20501;-66
2022/02/14 05:13:22;;;;;;;9.02;2.83;;;11.40;99.90;;;;;;5068415;28;20074;-66
2022/02/14 05:15:47;;;;;;;3.60;1.92;;;11.30;99.90;;;;;;5070160;28;20083;-67
2022/02/14 05:18:13;;;;;;;6.43;2.88;;;11.50;99.90;;;;;;5054209;28;20040;-67
2022/02/14 05:20:39;;;;;;;5.85;3.40;;;11.30;99.90;;;;;;5087996;28;20074;-66
2022/02/14 05:23:05;;;;;;;5.60;2.80;;;11.30;99.90;;;;;;5085074;28;20079;-66
2022/02/14 05:25:31;;;;;;;7.25;2.92;;;11.50;99.90;;;;;;5067999;28;20052;-66
2022/02/14 05:27:57;;;;;;;6.47;2.80;;;11.30;99.90;;;;;;5087641;28;20044;-67
2022/02/14 05:30:23;;;;;;;7.97;3.13;;;11.40;99.90;;;;;;5071610;28;20044;-67
2022/02/14 05:32:48;;;;;;;5.53;3.03;;;11.10;99.90;;;;;;5073362;28;20052;-66
2022/02/14 05:35:14;;;;;;;6.63;3.90;;;11.20;99.90;;;;;;5049044;28;20084;-65
2022/02/14 05:37:40;;;;;;;3.55;2.33;;;11.30;99.90;;;;;;5068194;28;20047;-66
2022/02/14 05:40:07;;;;;;;7.63;2.92;;;11.50;99.90;;;;;;5057866;28;20495;-65
2022/02/14 05:42:33;;;;;;;7.50;2.92;;;11.60;99.90;;;;;;5083721;28;20049;-65
2022/02/14 05:44:59;;;;;;;9.32;3.17;;;11.30;99.90;;;;;;5056588;28;20183;-65
2022/02/14 05:47:25;;;;;;;6.15;2.75;;;11.30;99.90;;;;;;5036878;28;20135;-66
2022/02/14 05:49:50;;;;;;;9.23;2.80;;;11.50;99.90;;;;;;5037777;28;20057;-65
2022/02/14 05:52:16;;;;;;;5.43;2.80;;;11.50;99.90;;;;;;5076004;28;20071;-64
2022/02/14 05:54:42;;;;;;;6.55;2.70;;;11.50;99.90;;;;;;5084045;28;20198;-65
2022/02/14 05:57:07;;;;;;;8.55;2.67;;;11.40;99.90;;;;;;5079016;28;20047;-64
2022/02/14 05:59:33;;;;;;;5.68;2.13;;;11.60;99.90;;;;;;5073221;28;20052;-65
2022/02/14 06:02:01;;;;;;;6.85;2.85;;;11.60;99.90;;;;;;5082682;28;20044;-65
2022/02/14 06:04:28;;;;;;;8.77;3.38;;;11.60;99.90;;;;;;5066858;28;20062;-65
2022/02/14 06:06:54;;;;;;;4.82;2.40;;;11.40;99.90;;;;;;5063977;28;20310;-64
2022/02/14 06:09:21;;;;;;;5.90;2.30;;;11.30;99.90;;;;;;5067478;28;20040;-65
2022/02/14 06:11:47;;;;;;;5.90;2.47;;;11.30;99.90;;;;;;5063852;28;20289;-65
2022/02/14 06:14:14;;;;;;;5.80;3.15;;;11.40;99.90;;;;;;5074072;28;20036;-66
2022/02/14 06:16:40;;;;;;;6.05;2.88;;;11.10;99.90;;;;;;5065471;28;20530;-64
2022/02/14 06:19:05;;;;;;;8.43;3.58;;;11.30;99.90;;;;;;5065618;28;20050;-65
2022/02/14 06:21:31;;;;;;;6.63;3.22;;;11.50;99.90;;;;;;5056183;28;20345;-64
2022/02/14 06:23:57;;;;;;;5.50;2.65;;;11.40;99.90;;;;;;5066891;28;20079;-64
2022/02/14 06:26:23;;;;;;;9.38;3.35;;;11.40;99.90;;;;;;5055661;28;20074;-64
2022/02/14 06:28:49;;;;;;;5.93;3.00;;;11.40;99.90;;;;;;5071035;28;20048;-64
2022/02/14 06:31:14;;;;;;;4.70;2.60;;;11.30;99.90;;;;;;5053039;28;20099;-65
2022/02/14 06:33:40;;;;;;;4.50;3.28;;;11.30;99.90;;;;;;5053211;28;20064;-65
2022/02/14 06:36:07;;;;;;;6.20;2.75;;;11.50;99.90;;;;;;5063454;28;20167;-64
2022/02/14 06:38:34;;;;;;;7.97;3.15;;;11.50;99.90;;;;;;5064924;28;20053;-64
2022/02/14 06:41:01;;;;;;;7.03;2.75;;;11.20;99.90;;;;;;5050727;28;20124;-65
2022/02/14 06:43:27;;;;;;;5.78;3.20;;;11.20;99.90;;;;;;5077821;28;20181;-64
2022/02/14 06:45:53;;;;;;;6.22;3.05;;;11.10;99.90;;;;;;5069170;28;20052;-64
2022/02/14 06:48:18;;;;;;;6.68;3.30;;;11.20;99.90;;;;;;5068104;28;20047;-64
2022/02/14 06:50:44;;;;;;;4.35;2.63;;;11.40;99.90;;;;;;5056152;28;20049;-64
2022/02/14 06:53:10;;;;;;;6.28;2.58;;;11.20;99.90;;;;;;5066101;28;20070;-64
2022/02/14 06:55:35;;;;;;;3.47;2.35;;;11.20;99.90;;;;;;5057141;28;20079;-65
2022/02/14 06:58:01;;;;;;;5.53;2.67;;;11.40;99.90;;;;;;5076912;28;20043;-63
2022/02/14 07:00:27;;;;;;;5.85;2.38;;;11.30;99.90;;;;;;5073234;28;20047;-64
2022/02/14 07:02:53;;;;;;;5.40;3.17;;;11.50;99.90;;;;;;5078473;28;20055;-63
2022/02/14 07:05:22;;;;;;;5.82;2.58;;;11.40;99.90;;;;;;5075583;28;20066;-63
2022/02/14 07:07:49;;;;;;;4.47;2.97;;;11.30;99.90;;;;;;5075490;28;20040;-64
2022/02/14 07:10:15;;;;;;;4.60;2.90;;;11.10;99.90;;;;;;5073282;28;20044;-64
2022/02/14 07:12:44;;;;;;;4.90;2.67;;;11.20;99.90;;;;;;5074074;28;20059;-64
2022/02/14 07:15:11;;;;;;;5.43;2.55;;;11.40;99.90;;;;;;5069010;28;20041;-64
2022/02/14 07:17:37;;;;;;;4.10;2.30;;;11.20;99.90;;;;;;5072269;28;20107;-64
2022/02/14 07:20:04;;;;;;;9.07;2.83;;;11.10;99.90;;;;;;5069840;28;20040;-64
2022/02/14 07:22:29;;;;;;;4.13;2.95;;;11.20;99.90;;;;;;5075332;28;20055;-64
2022/02/14 07:24:55;;;;;;;6.68;3.22;;;11.30;99.90;;;;;;5076305;28;20052;-66
2022/02/14 07:27:21;;;;;;;4.82;2.42;;;11.20;99.90;;;;;;5070098;28;20044;-63
2022/02/14 07:29:46;;;;;;;4.38;2.50;;;11.20;99.90;;;;;;5074185;28;20051;-64
2022/02/14 07:32:12;;;;;;;5.57;2.30;;;11.30;99.90;;;;;;5029906;28;20147;-63
2022/02/14 07:34:38;;;;;;;3.50;2.22;;;11.10;99.90;;;;;;5063801;28;20125;-64
2022/02/14 07:37:04;;;;;;;5.90;2.47;;;11.40;99.90;;;;;;5064133;28;20052;-63
2022/02/14 07:39:31;;;;;;;4.80;2.10;;;11.20;99.90;;;;;;5059689;28;20043;-64
2022/02/14 07:42:00;;;;;;;5.38;2.35;;;11.50;99.90;;;;;;5039454;28;20072;-63
2022/02/14 07:44:26;;;;;;;8.38;2.70;;;11.40;99.90;;;;;;5067496;28;20076;-64
2022/02/14 07:46:53;;;;;;;5.78;2.80;;;11.20;99.90;;;;;;5063945;28;20051;-63
2022/02/14 07:49:20;;;;;;;4.38;2.22;;;11.60;99.90;;;;;;5044265;28;20032;-64
2022/02/14 07:51:46;;;;;;;5.22;2.63;;;11.50;99.90;;;;;;5054948;28;20072;-64
2022/02/14 07:54:13;;;;;;;7.25;2.58;;;11.50;99.90;;;;;;5056183;28;20036;-64
2022/02/14 07:56:39;;;;;;;4.80;2.35;;;11.50;99.90;;;;;;5046626;28;20049;-63
2022/02/14 07:59:06;;;;;;;4.70;2.75;;;11.60;99.90;;;;;;5060310;28;20041;-64
2022/02/14 08:01:32;;;;;;;8.88;2.88;;;11.50;99.90;;;;;;5049416;28;20323;-64
2022/02/14 08:03:57;;;;;;;3.95;2.55;;;11.40;99.90;;;;;;5063372;28;20442;-64
2022/02/14 08:06:23;;;;;;;5.32;2.20;;;11.30;99.90;;;;;;5053179;28;20048;-64
2022/02/14 08:08:50;;;;;;;4.95;2.35;;;11.50;99.90;;;;;;5091092;28;20074;-65
2022/02/14 08:11:17;;;;;;;5.65;2.78;;;11.80;99.90;;;;;;5049623;28;20079;-64
2022/02/14 08:13:43;;;;;;;4.85;2.40;;;11.50;99.90;;;;;;5077771;28;20277;-64
2022/02/14 08:16:09;;;;;;;5.95;2.45;;;11.40;99.90;;;;;;5057036;28;20052;-63
2022/02/14 08:18:36;;;;;;;6.13;2.33;;;11.40;99.90;;;;;;5083825;28;20049;-64
2022/02/14 08:21:02;;;;;;;5.13;2.38;;;11.40;99.90;;;;;;5047752;28;20519;-65
2022/02/14 08:23:29;;;;;;;4.43;2.30;;;11.30;99.90;;;;;;5059651;28;20063;-65
2022/02/14 08:25:55;;;;;;;3.92;2.28;;;11.40;99.90;;;;;;5070525;28;20071;-66
2022/02/14 08:28:22;;;;;;;6.22;2.58;;;11.40;99.90;;;;;;5087773;28;20045;-65
2022/02/14 08:30:49;;;;;;;6.03;3.10;;;11.50;99.90;;;;;;5070273;28;20070;-65
2022/02/14 08:33:14;;;;;;;4.72;2.08;;;11.40;99.90;;;;;;5061399;28;20048;-67
2022/02/14 08:35:40;;;;;;;7.30;3.20;;;11.40;99.90;;;;;;5075472;28;20050;-66
2022/02/14 08:38:07;;;;;;;6.30;2.67;;;11.10;99.90;;;;;;5074922;28;20044;-66
2022/02/14 08:40:33;;;;;;;5.93;4.20;;;11.30;99.90;;;;;;5053948;28;20109;-65
2022/02/14 08:43:00;;;;;;;7.40;3.22;;;11.20;99.90;;;;;;5096459;28;20510;-66
2022/02/14 08:45:30;;;;;;;4.15;2.88;;;11.20;99.90;;;;;;5055051;28;20040;-67
2022/02/14 08:47:56;;;;;;;4.85;2.30;;;11.10;99.90;;;;;;5071716;28;20036;-65
2022/02/14 08:50:22;;;;;;;4.55;2.33;;;11.20;99.90;;;;;;5052340;28;20482;-66
2022/02/14 08:52:48;;;;;;;3.65;2.13;;;11.40;99.90;;;;;;5075934;28;20119;-66
2022/02/14 08:55:14;;;;;;;3.50;2.17;;;11.50;99.90;;;;;;5060061;28;20064;-65
2022/02/14 08:57:42;;;;;;;5.72;2.78;;;11.40;99.90;;;;;;5067470;28;20059;-66
2022/02/14 09:00:08;;;;;;;5.10;2.60;;;11.10;99.90;;;;;;5080304;28;20041;-64
2022/02/14 09:02:34;;;;;;;4.82;2.35;;;11.00;99.90;;;;;;5086858;28;20513;-64
2022/02/14 09:05:00;;;;;;;4.85;2.17;;;11.30;99.90;;;;;;5062682;28;20088;-68
2022/02/14 09:07:26;;;;;;;5.00;2.42;;;11.30;99.90;;;;;;5084316;28;20082;-67
2022/02/14 09:09:52;;;;;;;5.75;2.08;;;11.30;99.90;;;;;;5071585;28;20099;-68
2022/02/14 09:12:18;;;;;;;4.63;2.10;;;11.20;99.90;;;;;;5032460;28;20135;-67
2022/02/14 09:14:44;;;;;;;4.28;2.92;;;11.20;99.90;;;;;;5060448;28;20063;-67
2022/02/14 09:17:10;;;;;;;4.68;2.20;;;11.20;99.90;;;;;;5067809;28;20048;-67
2022/02/14 09:19:36;;;;;;;6.03;2.40;;;11.30;99.90;;;;;;5060833;28;20072;-68
2022/02/14 09:22:02;;;;;;;6.82;2.25;;;11.40;99.90;;;;;;5085447;28;20098;-67
2022/02/14 09:24:29;;;;;;;5.13;2.58;;;11.30;99.90;;;;;;5062692;28;20044;-67
2022/02/14 09:26:56;;;;;;;5.40;2.45;;;11.00;99.90;;;;;;5081350;28;20079;-67
2022/02/14 09:29:22;;;;;;;4.75;2.75;;;11.10;99.90;;;;;;5080438;28;20482;-67
2022/02/14 09:31:47;;;;;;;4.10;2.22;;;10.90;99.90;;;;;;5040362;28;20341;-67
2022/02/14 09:34:13;;;;;;;5.78;3.10;;;10.50;99.90;;;;;;5059893;28;20322;-67
2022/02/14 09:36:39;;;;;;;7.45;3.92;;;10.20;99.90;;;;;;5056920;28;20055;-67
2022/02/14 09:39:08;;;;;;;5.40;2.67;;;10.30;99.90;;;;;;5048224;28;20049;-68
2022/02/14 09:41:36;;;;;;;9.15;3.42;;;10.10;99.90;;;;;;5043508;28;20052;-67
2022/02/14 09:44:02;;;;;;;6.45;3.13;;;9.80;99.90;;;;;;5058924;28;20322;-67
2022/02/14 09:46:30;;;;;;;5.43;3.22;;;9.70;99.90;;;;;;5058168;28;20082;-67
2022/02/14 09:48:59;;;;;;;5.30;3.25;;;9.60;99.90;;;;;;5088915;28;20040;-67
2022/02/14 09:51:25;;;;;;;6.30;3.60;;;9.50;99.90;;;;;;5047970;28;20045;-67
2022/02/14 09:53:51;;;;;;;5.75;4.10;;;9.30;99.90;;;;;;5062819;28;20056;-67
2022/02/14 09:56:17;;;;;;;6.72;3.75;;;9.20;99.90;;;;;;5057417;28;20598;-67
2022/02/14 09:58:43;;;;;;;5.97;3.88;;;9.10;99.90;;;;;;5087015;28;20086;-67
2022/02/14 10:01:09;;;;;;;7.88;4.63;;;9.20;99.90;;;;;;5057502;28;20090;-67
2022/02/14 10:03:35;;;;;;;7.72;3.95;;;9.20;99.90;;;;;;5064624;28;20048;-67
2022/02/14 10:06:02;;;;;;;7.45;4.20;;;9.00;99.90;;;;;;5055648;28;20574;-67
2022/02/14 10:08:31;;;;;;;6.97;3.72;;;8.90;99.90;;;;;;5089269;28;20528;-67
2022/02/14 10:11:18;;;;;;;7.18;3.90;;;8.90;99.90;;;;;;5060156;28;20052;-67
2022/02/14 10:13:50;;;;;;;7.97;3.85;;;8.90;99.90;;;;;;5048086;28;20328;-68
2022/02/14 10:16:17;;;;;;;5.90;3.80;;;9.10;99.90;;;;;;5050336;28;20131;-67
2022/02/14 10:18:43;;;;;;;6.85;4.15;;;9.20;99.90;;;;;;5060217;28;20532;-67
2022/02/14 10:21:21;;;;;;;6.28;4.90;;;9.30;99.90;;;;;;5056472;28;20075;-67
2022/02/14 10:24:08;;;;;;;4.97;4.32;;;9.40;99.90;;;;;;5070045;28;20508;-68
2022/02/14 10:26:33;;;;;;;5.32;3.80;;;9.40;99.90;;;;;;5059938;28;20051;-67
2022/02/14 10:29:15;;;;;;;5.30;4.30;;;9.50;99.90;;;;;;5066753;28;20052;-67
2022/02/14 10:31:47;;;;;;;6.43;4.80;;;9.50;99.90;;;;;;5049457;28;20502;-67
2022/02/14 10:34:14;;;;;;;7.22;4.18;;;9.60;99.90;;;;;;5081755;28;20092;-67
2022/02/14 10:36:44;;;;;;;5.93;4.65;;;9.60;99.90;;;;;;5052514;28;20079;-67
2022/02/14 10:39:25;;;;;;;5.82;4.00;;;9.70;99.90;;;;;;5063336;28;20048;-68
2022/02/14 10:42:06;;;;;;;4.68;3.83;;;9.60;99.90;;;;;;5047225;28;20076;-67
2022/02/14 10:47:24;;;;;;;4.10;3.55;;;9.80;99.90;;;;;;5069555;28;20055;-67
2022/02/14 10:50:20;;;;;;;4.88;3.38;;;9.70;99.90;;;;;;5064114;28;20699;-67
2022/02/14 10:52:55;;;;;;;3.70;3.33;;;9.70;99.90;;;;;;5062927;28;20147;-67
2022/02/14 10:55:26;;;;;;;4.22;3.42;;;9.70;99.90;;;;;;5059353;28;20076;-67
2022/02/14 10:57:53;;;;;;;3.55;3.25;;;9.80;99.90;;;;;;5036475;28;20072;-67
2022/02/14 11:00:26;;;;;;;5.75;3.97;;;9.90;99.90;;;;;;5062617;28;20044;-67
2022/02/14 11:02:57;;;;;;;4.88;3.25;;;9.90;99.90;;;;;;5063553;28;20586;-67
2022/02/14 11:05:25;;;;;;;5.70;3.60;;;9.80;99.90;;;;;;5057999;28;20045;-67
2022/02/14 11:07:52;;;;;;;6.00;3.70;;;9.80;99.90;;;;;;5080616;28;20134;-67
2022/02/14 11:10:20;;;;;;;5.13;3.47;;;9.80;99.90;;;;;;5063391;28;20040;-67
2022/02/14 11:12:56;;;;;;;4.05;3.30;;;10.00;99.90;;;;;;5045895;28;20063;-67
2022/02/14 11:15:27;;;;;;;5.97;3.17;;;10.00;99.90;;;;;;5047544;28;20047;-67
2022/02/14 11:17:55;;;;;;;3.83;3.13;;;10.00;99.90;;;;;;5066910;28;20052;-67
2022/02/14 11:20:21;;;;;;;4.93;3.40;;;10.00;99.90;;;;;;5058688;28;20194;-67
2022/02/14 11:22:49;;;;;;;5.50;3.83;;;10.00;99.90;;;;;;5066034;28;20133;-67
2022/02/14 11:25:34;;;;;;;4.30;3.67;;;10.10;99.90;;;;;;5059469;28;20044;-67
2022/02/14 11:28:10;;;;;;;4.45;3.38;;;10.10;99.90;;;;;;5045356;28;20057;-68
2022/02/14 11:30:36;;;;;;;5.38;3.05;;;10.20;99.90;;;;;;5056520;28;20079;-67
2022/02/14 11:33:13;;;;;;;6.25;3.60;;;10.30;99.90;;;;;;5082373;28;20063;-67
2022/02/14 11:36:00;;;;;;;4.53;3.50;;;10.30;99.90;;;;;;5074803;28;20109;-67
2022/02/14 11:38:48;;;;;;;4.60;3.40;;;10.40;99.90;;;;;;5032391;28;20049;-67
2022/02/14 11:41:37;;;;;;;3.85;3.08;;;10.40;99.90;;;;;;5029754;28;20052;-67
2022/02/14 11:44:22;;;;;;;;;;;10.50;99.90;;;;;;5072671;28;20048;-67
2022/02/14 11:46:53;;;;;;;5.70;3.15;;;10.50;99.90;;;;;;5077205;28;19927;-67
2022/02/14 11:49:40;;;;;;;3.75;3.17;;;10.70;99.90;;;;;;5065036;28;20048;-67
2022/02/14 11:52:08;;;;;;;4.72;3.47;;;10.70;99.90;;;;;;5049076;28;20444;-67
2022/02/14 11:54:45;;;;;;;4.68;3.47;;;10.80;99.90;;;;;;5052581;28;20043;-67
2022/02/14 11:57:27;;;;;;;4.93;3.15;;;10.80;99.90;;;;;;5075281;28;20059;-67
2022/02/14 12:00:17;;;;;;;4.82;3.78;;;11.10;99.90;;;;;;5041997;28;20066;-67
2022/02/14 12:02:54;;;;;;;4.32;3.10;;;10.80;99.90;;;;;;5047019;28;20060;-67
2022/02/14 12:05:45;;;;;;;7.63;4.05;;;10.90;99.90;;;;;;5057202;28;20045;-67
2022/02/14 12:08:13;;;;;;;3.53;2.80;;;10.90;99.90;;;;;;5046891;28;20071;-67
2022/02/14 12:10:51;;;;;;;4.90;3.17;;;10.80;99.90;;;;;;5081041;28;20122;-67
2022/02/14 12:13:20;;;;;;;4.85;3.65;;;10.80;99.90;;;;;;5046555;28;20052;-67
2022/02/14 12:21:13;;;;;;;3.63;2.97;;;11.10;99.90;;;;;;5059836;28;20052;-67
2022/02/14 12:23:40;;;;;;;6.05;3.25;;;11.30;99.90;;;;;;5047186;28;20123;-67
2022/02/14 12:26:10;;;;;;;4.80;2.60;;;11.40;99.90;;;;;;5066466;28;20083;-67
2022/02/14 12:28:38;;;;;;;4.40;2.72;;;11.30;99.90;;;;;;5073618;28;20036;-67
2022/02/14 12:31:05;;;;;;;3.33;2.40;;;11.20;99.90;;;;;;5066905;28;20461;-67
2022/02/14 12:33:32;;;;;;;4.38;2.40;;;11.10;99.90;;;;;;5062172;28;20183;-69
2022/02/14 12:36:01;;;;;;;3.10;1.98;;;11.00;99.90;;;;;;5073582;28;20055;-67
2022/02/14 12:38:28;;;;;;;3.92;2.63;;;10.80;99.90;;;;;;5048352;28;20401;-67
2022/02/14 12:41:02;;;;;;;7.50;2.80;;;10.80;99.90;;;;;;5089780;28;20083;-67
2022/02/14 12:43:43;;;;;;;5.75;2.40;;;10.70;99.90;;;;;;5017610;28;20040;-67
2022/02/14 12:46:11;;;;;;;3.58;2.22;;;10.70;99.90;;;;;;5081035;28;20045;-67
2022/02/14 12:48:36;;;;;;;6.28;2.85;;;10.50;99.90;;;;;;5072406;28;20040;-67
2022/02/14 12:51:12;;;;;;;3.50;2.58;;;10.50;99.90;;;;;;5051656;28;20342;-68
2022/02/14 12:53:43;;;;;;;6.30;2.83;;;10.60;99.90;;;;;;5067567;28;20061;-67
2022/02/14 12:56:12;;;;;;;4.47;2.70;;;10.70;99.90;;;;;;5058838;28;20054;-68
2022/02/14 12:58:52;;;;;;;5.95;2.33;;;10.80;99.90;;;;;;5060211;28;20171;-67
2022/02/14 13:01:20;;;;;;;6.03;2.33;;;10.70;99.90;;;;;;5041916;28;20506;-67
2022/02/14 13:03:57;;;;;;;3.42;1.60;;;10.60;99.90;;;;;;5073426;28;20048;-67